Main page
METAR-TAF:

METAR-TAF

Airports :

Tarauacá Airport

Tarauacá, Acre, Brazil

latitude: 08-10S, longitude: 070-46W, elevation: 190 m

Current weather observation

The report was made 39 minutes ago, at 19:00 UTC
Wind 7 kt from the North/Northwest, varying between West and North
Temperature 34°C
Humidity 53%
Pressure 1010 hPa
Visibility 10 km or more
no clouds below 1500 m and no cumulonimbus

METAR: SBTK 271900Z AUTO 33007KT 280V010 CAVOK 34/23 Q1010

Time: 14:39 (19:39 UTC)


TAF: missing

Weather observations and forecasts of more than 4000 airports (METAR and TAF reports).

The available stations are represented by yellow and red dots on the map.

Hover mouse over dot to see the name of the station.

Then click to see weather observations and forecasts.

To change the map : click on the green buttons with a black cross to zoom in, on the green button with a dash to zoom out, or on the green arrows for adjacent maps.


METAR-TAF: